createdAt,value
2019-05-17T12:44:37.151Z,50.00
2019-05-17T12:47:15.697Z,49.60
2019-05-17T12:49:44.060Z,49.20
2019-05-17T12:52:12.403Z,48.70
2019-05-17T12:54:40.673Z,49.10
2019-05-17T12:57:09.015Z,49.60
2019-05-17T12:59:37.297Z,49.90
2019-05-17T13:02:05.605Z,50.20
2019-05-17T13:04:35.219Z,50.40
2019-05-17T13:07:03.565Z,50.40
2019-05-17T13:09:32.722Z,50.70
2019-05-17T13:12:01.057Z,50.80
2019-05-17T13:14:29.378Z,50.70
2019-05-17T13:16:57.714Z,50.50
2019-05-17T13:19:26.044Z,50.50
2019-05-17T13:21:54.530Z,50.60
2019-05-17T13:24:22.785Z,50.60
2019-05-17T13:26:51.073Z,50.60
2019-05-17T13:29:19.342Z,50.60
2019-05-17T13:31:47.603Z,50.60
2019-05-17T13:34:15.882Z,50.80
2019-05-17T13:36:44.148Z,50.70
2019-05-17T13:39:12.445Z,50.60
2019-05-17T13:41:40.711Z,50.60
2019-05-17T13:44:08.993Z,50.60
2019-05-17T13:46:37.263Z,50.60
2019-05-17T13:49:05.547Z,50.70
2019-05-17T13:51:33.849Z,50.60
2019-05-17T13:54:02.182Z,50.60
2019-05-17T13:56:30.439Z,50.60
2019-05-17T13:58:58.768Z,51.20
2019-05-17T14:01:27.034Z,50.60
2019-05-17T14:03:55.402Z,50.70
2019-05-17T14:06:23.967Z,50.70
2019-05-17T14:08:52.261Z,50.80
2019-05-17T14:11:20.545Z,50.60
2019-05-17T14:13:48.819Z,50.60
2019-05-17T14:16:18.938Z,50.70
2019-05-17T14:18:47.224Z,50.60
2019-05-17T14:21:15.571Z,50.10
2019-05-17T14:23:43.865Z,50.60
2019-05-17T14:26:12.223Z,50.50
2019-05-17T14:28:40.581Z,50.50
2019-05-17T14:31:08.844Z,51.30
2019-05-17T14:33:37.113Z,50.70
2019-05-17T14:36:05.491Z,50.60
2019-05-17T14:38:33.819Z,50.50
2019-05-17T14:41:07.834Z,50.60
2019-05-17T14:43:33.751Z,50.50
2019-05-17T14:59:46.780Z,45.50
2019-05-17T15:05:41.271Z,52.00
2019-05-17T15:08:09.700Z,58.10
2019-05-17T15:10:38.144Z,60.40
2019-05-17T15:13:06.698Z,61.00
2019-05-17T15:15:35.209Z,63.10
2019-05-17T15:18:03.729Z,64.20
2019-05-17T15:20:32.231Z,63.90
2019-05-17T15:23:00.707Z,65.00
2019-05-17T15:25:29.188Z,66.40
2019-05-17T15:27:57.692Z,67.90
2019-05-17T15:30:26.144Z,67.00
2019-05-17T15:32:54.589Z,67.40
2019-05-17T15:35:23.077Z,66.00
2019-05-17T15:37:51.528Z,66.40
2019-05-17T15:40:20.054Z,66.20
2019-05-17T15:42:48.648Z,66.90
2019-05-17T15:45:17.099Z,66.60
2019-05-17T15:47:45.648Z,66.20
2019-05-17T15:50:14.093Z,69.80
2019-05-17T15:52:42.653Z,72.30
2019-05-17T15:55:11.303Z,72.80
2019-05-17T15:57:39.721Z,72.50
2019-05-17T16:00:08.353Z,73.80
2019-05-17T16:02:38.087Z,74.10
2019-05-17T16:05:06.569Z,74.20
2019-05-17T16:07:35.030Z,74.20
2019-05-17T16:10:07.555Z,74.10
2019-05-17T16:12:36.053Z,74.20
2019-05-17T16:15:06.652Z,74.30
2019-05-17T16:17:35.097Z,74.40
2019-05-17T16:20:05.009Z,76.00
2019-05-17T16:22:33.473Z,76.30
2019-05-17T16:25:02.177Z,76.30
2019-05-17T16:27:30.698Z,76.40
2019-05-17T16:29:59.196Z,76.50
2019-05-17T16:32:27.783Z,76.60
2019-05-17T16:34:56.240Z,75.70
2019-05-17T16:37:24.720Z,76.10
2019-05-17T16:39:53.184Z,76.30
2019-05-17T16:42:21.676Z,76.10
2019-05-17T16:44:50.122Z,77.10
2019-05-17T16:47:18.578Z,76.80
2019-05-17T16:49:47.093Z,78.20
2019-05-17T16:52:15.509Z,78.50
2019-05-17T16:54:44.026Z,78.30
2019-05-17T16:57:12.474Z,78.70
2019-05-17T16:59:40.920Z,78.40
2019-05-17T17:02:09.485Z,79.00
2019-05-17T17:04:37.937Z,78.70
2019-05-17T17:07:06.381Z,78.50
2019-05-17T17:09:34.874Z,79.60
2019-05-17T17:12:03.378Z,80.10
2019-05-17T17:14:31.817Z,80.50
2019-05-17T17:17:00.268Z,79.50
2019-05-17T17:19:28.772Z,78.90
2019-05-17T17:21:57.222Z,79.60
2019-05-17T17:24:25.679Z,80.80
2019-05-17T17:26:54.164Z,80.80
2019-05-17T17:29:22.725Z,80.80
2019-05-17T17:31:51.234Z,81.40
2019-05-17T17:34:19.670Z,80.80
2019-05-17T17:36:48.112Z,81.00
2019-05-17T17:39:16.657Z,80.70
2019-05-17T17:41:45.110Z,80.70
2019-05-17T17:44:13.566Z,80.30
2019-05-17T17:46:42.076Z,80.00
2019-05-17T17:49:10.672Z,80.00
2019-05-17T17:51:39.243Z,79.20
2019-05-17T17:54:07.716Z,79.00
2019-05-17T17:56:36.230Z,79.80
2019-05-17T17:59:04.735Z,79.70
2019-05-17T18:01:33.191Z,78.70
2019-05-17T18:04:01.621Z,79.80
2019-05-17T18:06:30.184Z,79.40
2019-05-17T18:08:58.636Z,79.10
2019-05-17T18:11:27.197Z,79.00
2019-05-17T18:13:55.644Z,78.90
2019-05-17T18:16:24.176Z,78.90
2019-05-17T18:18:52.621Z,79.30
2019-05-17T18:21:21.110Z,78.70
2019-05-17T18:23:49.573Z,77.90
2019-05-17T18:26:18.127Z,78.40
2019-05-17T18:28:46.767Z,78.60
2019-05-17T18:31:15.218Z,78.50
2019-05-17T18:33:43.752Z,77.90
2019-05-17T18:36:12.220Z,77.20
2019-05-17T18:38:40.777Z,75.80
2019-05-17T18:41:09.297Z,77.00
2019-05-17T18:43:37.741Z,76.90
2019-05-17T18:46:06.198Z,77.20
2019-05-17T18:48:34.703Z,77.70
2019-05-17T18:51:03.153Z,76.60
2019-05-17T18:53:31.656Z,76.70
2019-05-17T18:56:00.132Z,77.50
2019-05-17T18:58:28.588Z,76.80
2019-05-17T19:00:57.039Z,76.60
2019-05-17T19:03:25.534Z,77.00
2019-05-17T19:06:12.161Z,77.80
2019-05-17T19:08:40.645Z,78.00
2019-05-17T19:11:09.090Z,78.10
2019-05-17T19:13:37.579Z,78.20
2019-05-17T19:16:06.083Z,77.90
2019-05-17T19:18:34.545Z,78.20
2019-05-17T19:21:03.139Z,78.90
2019-05-17T19:23:31.656Z,78.60
2019-05-17T19:26:00.245Z,79.00
2019-05-17T19:28:28.692Z,78.90
2019-05-17T19:30:57.182Z,79.70
2019-05-17T19:33:25.634Z,80.40
2019-05-17T19:35:54.087Z,80.50
2019-05-17T19:38:22.577Z,81.10
2019-05-17T19:40:51.026Z,81.00
2019-05-17T19:43:19.517Z,81.40
2019-05-17T19:45:48.006Z,81.90
2019-05-17T19:48:19.524Z,81.90
2019-05-17T19:50:46.649Z,81.80
2019-05-17T19:53:15.103Z,81.90
2019-05-17T19:55:43.548Z,82.10
2019-05-17T19:58:12.052Z,82.60
2019-05-17T20:00:40.804Z,82.70
2019-05-17T20:03:09.255Z,83.40
2019-05-17T20:05:37.707Z,83.10
2019-05-17T20:08:06.257Z,83.40
2019-05-17T20:10:34.761Z,83.70
2019-05-17T20:13:03.201Z,83.80
2019-05-17T20:15:34.565Z,83.70
2019-05-17T20:18:01.800Z,84.30
2019-05-17T20:20:30.403Z,84.60
2019-05-17T20:22:58.898Z,84.90
2019-05-17T20:25:27.340Z,85.30
2019-05-17T20:27:55.830Z,85.60
2019-05-17T20:30:24.269Z,86.40
2019-05-17T20:32:52.781Z,87.00
2019-05-17T20:35:21.228Z,87.80
2019-05-17T20:37:49.676Z,87.80
2019-05-17T20:40:18.176Z,87.70
2019-05-17T20:42:46.626Z,88.00
2019-05-17T20:45:15.237Z,87.90
2019-05-17T20:47:43.747Z,88.10
2019-05-17T20:50:12.181Z,88.30
2019-05-17T20:52:40.638Z,88.30
2019-05-17T20:55:09.126Z,88.40
2019-05-17T20:57:37.614Z,88.00
2019-05-17T21:00:09.285Z,88.40
2019-05-17T21:02:37.745Z,88.70
2019-05-17T21:05:09.080Z,88.50
2019-05-17T21:07:37.596Z,88.60
2019-05-17T21:10:06.340Z,89.30
2019-05-17T21:12:34.834Z,88.80
2019-05-17T21:15:04.064Z,88.90
2019-05-17T21:17:32.590Z,89.20
2019-05-17T21:20:01.101Z,89.40
2019-05-17T21:22:29.595Z,89.40
2019-05-17T21:24:58.049Z,89.50
2019-05-17T21:27:26.616Z,89.50
2019-05-17T21:29:55.001Z,89.60
2019-05-17T21:32:23.452Z,89.70
2019-05-17T21:34:51.944Z,89.60
2019-05-17T21:37:20.773Z,89.20
2019-05-17T21:39:49.184Z,89.10
2019-05-17T21:42:17.627Z,89.20
2019-05-17T21:44:46.120Z,89.60
2019-05-17T21:47:14.599Z,89.70
2019-05-17T21:49:43.075Z,90.10
2019-05-17T21:52:11.535Z,90.10
2019-05-17T21:54:39.972Z,90.20
2019-05-17T21:57:08.463Z,90.20
2019-05-17T21:59:36.913Z,90.30
2019-05-17T22:02:05.500Z,90.20
2019-05-17T22:04:33.981Z,90.20
2019-05-17T22:07:02.436Z,90.20
2019-05-17T22:09:30.930Z,90.20
2019-05-17T22:12:01.013Z,90.20
2019-05-17T22:14:29.589Z,90.20
2019-05-17T22:16:58.031Z,90.20
2019-05-17T22:19:27.796Z,90.10
2019-05-17T22:21:56.462Z,90.20
2019-05-17T22:24:24.910Z,90.30
2019-05-17T22:26:53.349Z,90.40
2019-05-17T22:29:21.866Z,90.50
2019-05-17T22:31:50.306Z,90.50
2019-05-17T22:34:18.745Z,90.80
2019-05-17T22:36:47.229Z,90.50
2019-05-17T22:39:15.882Z,90.50
2019-05-17T22:41:44.479Z,90.60
2019-05-17T22:44:12.934Z,90.60
2019-05-17T22:46:41.397Z,90.40
2019-05-17T22:49:09.897Z,90.40
2019-05-17T22:51:38.352Z,90.50
2019-05-17T22:54:06.860Z,90.30
2019-05-17T22:56:35.352Z,90.30
2019-05-17T22:59:03.879Z,90.50
2019-05-17T23:01:32.453Z,90.30
2019-05-17T23:04:00.902Z,90.40
2019-05-17T23:06:29.344Z,90.40
2019-05-17T23:08:57.900Z,90.50
2019-05-17T23:11:26.427Z,90.60
2019-05-17T23:13:54.918Z,90.70
2019-05-17T23:16:23.413Z,91.00
2019-05-17T23:19:07.574Z,91.10
2019-05-17T23:21:36.146Z,90.90
2019-05-17T23:24:04.960Z,90.70
2019-05-17T23:26:33.434Z,90.80
2019-05-17T23:29:01.979Z,90.50
2019-05-17T23:31:30.489Z,90.50
2019-05-17T23:33:58.974Z,90.70
2019-05-17T23:36:27.420Z,90.50
2019-05-17T23:38:55.917Z,90.30
2019-05-17T23:41:24.408Z,90.30
2019-05-17T23:43:52.870Z,90.40
2019-05-17T23:46:24.070Z,90.40
2019-05-17T23:48:52.524Z,90.40
2019-05-17T23:51:20.973Z,90.30
2019-05-17T23:53:49.471Z,90.30
2019-05-17T23:56:17.917Z,90.50
2019-05-17T23:58:46.363Z,90.50
